Time;durP1;ratioP1;P1;durP2;ratioP2;P2;SDS_P1;SDS_P2;PMS_P1;PMS_P2;Temp;Humidity;BMP_temperature;BMP_pressure;BME280_temperature;BME280_humidity;BME280_pressure;Samples;Min_cycle;Max_cycle;Signal;HPM_P1;HPM_P2
2022/02/09 00:03:57;;;;;;;18.37;11.17;;;;;;;;;;4974587;28;20042;-70
2022/02/09 00:06:41;;;;;;;15.53;10.03;;;;;;;;;;4985777;28;20038;-69
2022/02/09 00:09:07;;;;;;;19.37;11.00;;;;;;;;;;4993500;28;20025;-70
2022/02/09 00:11:48;;;;;;;17.53;10.73;;;;;;;;;;4992299;28;20059;-70
2022/02/09 01:40:20;;;;;;;22.58;14.65;;;;;;;;;;4984746;28;20407;-70
2022/02/09 01:56:21;;;;;;;27.05;15.70;;;;;;;;;;4990937;28;20033;-69
2022/02/09 01:58:48;;;;;;;22.43;13.67;;;;;;;;;;4991812;28;20031;-70
2022/02/09 02:01:14;;;;;;;21.87;14.57;;;;;;;;;;4989424;28;20033;-70
2022/02/09 02:03:40;;;;;;;22.50;14.67;;;;;;;;;;4991822;28;20038;-70
2022/02/09 02:06:06;;;;;;;21.67;14.20;;;;;;;;;;4989759;28;20098;-69
2022/02/09 02:08:33;;;;;;;22.13;14.77;;;;;;;;;;4991801;28;20069;-70
2022/02/09 02:16:29;;;;;;;21.30;13.80;;;;;;;;;;4990733;28;20577;-70
2022/02/09 02:19:03;;;;;;;21.73;13.10;;;;;;;;;;4990761;28;20026;-70
2022/02/09 02:40:02;;;;;;;18.37;11.93;;;;;;;;;;4990142;28;20066;-70
2022/02/09 03:15:05;;;;;;;12.97;10.20;;;;;;;;;;4949206;28;20035;-70
2022/02/09 03:17:36;;;;;;;14.93;10.10;;;;;;;;;;4965673;28;20050;-70
2022/02/09 03:20:28;;;;;;;14.93;10.50;;;;;;;;;;4976786;28;20029;-70
2022/02/09 03:31:00;;;;;;;16.47;9.67;;;;;;;;;;4993557;28;20037;-70
2022/02/09 03:44:45;;;;;;;16.42;10.10;;;;;;;;;;4994242;28;20140;-70
2022/02/09 03:55:08;;;;;;;15.33;10.30;;;;;;;;;;4993658;28;20034;-70
2022/02/09 03:57:45;;;;;;;12.57;9.47;;;;;;;;;;4993929;28;20096;-70
2022/02/09 04:00:24;;;;;;;14.53;9.13;;;;;;;;;;4992938;28;20114;-71
2022/02/09 04:02:52;;;;;;;14.93;9.50;;;;;;;;;;4993971;28;20036;-70
2022/02/09 04:05:19;;;;;;;14.93;10.00;;;;;;;;;;4992546;28;20053;-70
2022/02/09 04:07:46;;;;;;;17.43;10.13;;;;;;;;;;4993277;28;20060;-70
2022/02/09 04:10:18;;;;;;;17.23;10.33;;;;;;;;;;4991457;28;20037;-70
2022/02/09 04:15:50;;;;;;;16.37;9.93;;;;;;;;;;4977712;28;20037;-70
2022/02/09 04:37:33;;;;;;;17.17;10.05;;;;;;;;;;4992016;28;20228;-70
2022/02/09 04:40:05;;;;;;;13.77;9.23;;;;;;;;;;4992853;28;20030;-70
2022/02/09 04:47:45;;;;;;;12.10;8.93;;;;;;;;;;4974282;28;20396;-69
2022/02/09 04:50:20;;;;;;;14.00;8.97;;;;;;;;;;4973539;28;20030;-69
2022/02/09 04:53:04;;;;;;;15.00;9.32;;;;;;;;;;4992887;28;20022;-69
2022/02/09 04:58:29;;;;;;;10.70;8.82;;;;;;;;;;4991737;28;20049;-69
2022/02/09 05:01:06;;;;;;;14.97;9.17;;;;;;;;;;4991625;28;20018;-70
2022/02/09 05:30:06;;;;;;;17.23;10.63;;;;;;;;;;4992076;28;20498;-70
2022/02/09 05:32:32;;;;;;;15.50;9.40;;;;;;;;;;4991027;28;20019;-70
2022/02/09 05:34:58;;;;;;;17.97;10.93;;;;;;;;;;4992241;28;20111;-70
2022/02/09 05:37:24;;;;;;;19.17;10.87;;;;;;;;;;4991007;28;20041;-70
2022/02/09 05:39:50;;;;;;;17.23;9.83;;;;;;;;;;4991929;28;20030;-70
2022/02/09 05:42:16;;;;;;;16.57;10.83;;;;;;;;;;4990102;28;20031;-70
2022/02/09 05:44:42;;;;;;;19.27;11.13;;;;;;;;;;4991919;28;20037;-70
2022/02/09 05:47:52;;;;;;;18.40;11.33;;;;;;;;;;4977188;28;20067;-70
2022/02/09 05:50:08;;;;;;;20.10;10.97;;;;;;;;;;4972190;28;20053;-70
2022/02/09 05:55:50;;;;;;;17.30;11.17;;;;;;;;;;4949295;29;20035;-70
2022/02/09 06:00:56;;;;;;;19.70;11.23;;;;;;;;;;4966695;28;20135;-70
2022/02/09 06:03:22;;;;;;;15.63;11.40;;;;;;;;;;4991736;28;20471;-70
2022/02/09 06:05:48;;;;;;;17.40;11.83;;;;;;;;;;4990561;28;20053;-71
2022/02/09 06:08:14;;;;;;;19.13;10.73;;;;;;;;;;4991537;28;20521;-70
2022/02/09 06:10:46;;;;;;;17.23;11.40;;;;;;;;;;4990827;28;20034;-71
2022/02/09 06:16:02;;;;;;;17.70;12.33;;;;;;;;;;4972098;28;20033;-71
2022/02/09 06:21:17;;;;;;;16.70;11.50;;;;;;;;;;4975361;28;20490;-71
2022/02/09 06:23:43;;;;;;;17.83;12.47;;;;;;;;;;4990310;28;20478;-70
2022/02/09 06:26:09;;;;;;;14.80;10.63;;;;;;;;;;4988079;28;20191;-70
2022/02/09 06:28:35;;;;;;;21.50;11.90;;;;;;;;;;4991324;28;20033;-70
2022/02/09 06:31:01;;;;;;;16.90;10.90;;;;;;;;;;4989071;28;20033;-70
2022/02/09 06:33:27;;;;;;;20.17;11.27;;;;;;;;;;4991387;28;20106;-70
2022/02/09 06:35:56;;;;;;;20.93;11.80;;;;;;;;;;4990316;28;20087;-70
2022/02/09 06:38:22;;;;;;;17.50;12.17;;;;;;;;;;4991332;28;20065;-70
2022/02/09 06:40:53;;;;;;;20.53;12.40;;;;;;;;;;4990594;28;20105;-69
2022/02/09 06:43:19;;;;;;;17.87;11.30;;;;;;;;;;4971815;28;20022;-70
2022/02/09 06:45:45;;;;;;;23.97;12.10;;;;;;;;;;4971803;28;20106;-71
2022/02/09 06:48:15;;;;;;;18.60;11.53;;;;;;;;;;4970431;28;20054;-70
2022/02/09 06:50:46;;;;;;;18.83;12.13;;;;;;;;;;4971680;28;20022;-70
2022/02/09 06:53:30;;;;;;;19.20;11.43;;;;;;;;;;4988934;28;20022;-70
2022/02/09 06:55:58;;;;;;;19.77;12.33;;;;;;;;;;4971552;28;20065;-70
2022/02/09 07:01:01;;;;;;;19.70;11.77;;;;;;;;;;4989905;28;20475;-69
2022/02/09 07:03:27;;;;;;;16.90;11.30;;;;;;;;;;4971486;28;20088;-70
2022/02/09 07:05:53;;;;;;;14.63;11.63;;;;;;;;;;4971192;28;20043;-69
2022/02/09 07:08:19;;;;;;;23.70;13.27;;;;;;;;;;4971844;28;20051;-69
2022/02/09 07:10:45;;;;;;;17.13;11.83;;;;;;;;;;4989828;28;20033;-70
2022/02/09 07:13:11;;;;;;;23.07;13.47;;;;;;;;;;4989337;28;20081;-69
2022/02/09 07:15:41;;;;;;;21.37;12.03;;;;;;;;;;4990715;28;20113;-69
2022/02/09 07:18:11;;;;;;;22.30;12.50;;;;;;;;;;4989310;28;20038;-69
2022/02/09 07:23:22;;;;;;;25.77;13.67;;;;;;;;;;4972756;28;20046;-69
2022/02/09 07:26:01;;;;;;;24.03;13.00;;;;;;;;;;4972746;28;20023;-69
2022/02/09 07:28:27;;;;;;;20.43;11.87;;;;;;;;;;4971255;28;20066;-69
2022/02/09 07:30:53;;;;;;;24.50;12.63;;;;;;;;;;4971378;28;20023;-70
2022/02/09 07:33:19;;;;;;;22.40;11.30;;;;;;;;;;4989215;28;20031;-70
2022/02/09 07:35:45;;;;;;;22.77;12.60;;;;;;;;;;4990519;28;20049;-70
2022/02/09 07:38:11;;;;;;;20.50;12.97;;;;;;;;;;4987059;28;20471;-70
2022/02/09 07:40:39;;;;;;;21.30;13.13;;;;;;;;;;4988746;28;20023;-70
2022/02/09 07:43:12;;;;;;;23.97;13.87;;;;;;;;;;4987552;28;20033;-69
2022/02/09 07:50:46;;;;;;;25.30;13.60;;;;;;;;;;4990554;28;20084;-70
2022/02/09 07:53:45;;;;;;;19.77;12.80;;;;;;;;;;4971823;28;20444;-69
2022/02/09 07:55:58;;;;;;;19.63;12.57;;;;;;;;;;4969557;28;20030;-70
2022/02/09 07:58:24;;;;;;;21.30;13.03;;;;;;;;;;4988374;28;20042;-70
2022/02/09 08:00:50;;;;;;;20.57;12.97;;;;;;;;;;4990410;28;20034;-69
2022/02/09 08:03:16;;;;;;;21.60;14.67;;;;;;;;;;4988121;28;20103;-69
2022/02/09 08:05:42;;;;;;;22.67;13.60;;;;;;;;;;4993305;28;20041;-70
2022/02/09 08:08:08;;;;;;;29.80;16.73;;;;;;;;;;4987521;28;20092;-70
2022/02/09 08:10:47;;;;;;;26.67;14.03;;;;;;;;;;4972586;28;20030;-70
2022/02/09 08:24:10;;;;;;;22.07;12.93;;;;;;;;;;4993614;28;20033;-70
2022/02/09 08:26:52;;;;;;;18.23;11.57;;;;;;;;;;4991818;28;20022;-70
2022/02/09 08:32:24;;;;;;;18.27;12.07;;;;;;;;;;4988349;28;20041;-70
2022/02/09 08:34:31;;;;;;;19.70;13.33;;;;;;;;;;4991116;28;20429;-70
2022/02/09 08:36:57;;;;;;;22.40;12.30;;;;;;;;;;4991360;28;20049;-70
2022/02/09 08:39:24;;;;;;;23.27;14.67;;;;;;;;;;4992647;28;20092;-69
2022/02/09 08:41:50;;;;;;;31.23;18.27;;;;;;;;;;4989201;28;20046;-70
2022/02/09 08:44:16;;;;;;;21.77;13.37;;;;;;;;;;4988005;28;20471;-70
2022/02/09 08:46:43;;;;;;;24.37;15.03;;;;;;;;;;4983890;28;20027;-69
2022/02/09 08:49:12;;;;;;;17.43;14.13;;;;;;;;;;4992549;28;20042;-70
2022/02/09 08:51:40;;;;;;;22.83;14.10;;;;;;;;;;4991534;28;20031;-69
2022/02/09 08:54:07;;;;;;;20.43;14.70;;;;;;;;;;4992651;28;20061;-69
2022/02/09 08:56:33;;;;;;;22.50;15.77;;;;;;;;;;4990201;28;20610;-69
2022/02/09 08:58:59;;;;;;;26.57;17.03;;;;;;;;;;4991180;28;20483;-69
2022/02/09 09:01:36;;;;;;;25.70;15.90;;;;;;;;;;4993050;28;20109;-69
2022/02/09 09:04:11;;;;;;;26.47;16.77;;;;;;;;;;4973370;28;20369;-69
2022/02/09 09:06:39;;;;;;;26.80;15.93;;;;;;;;;;4972607;28;20038;-69
2022/02/09 09:09:22;;;;;;;22.17;16.30;;;;;;;;;;4991647;28;20075;-69
2022/02/09 09:14:45;;;;;;;23.27;15.53;;;;;;;;;;4991058;28;20456;-69
2022/02/09 09:18:03;;;;;;;21.67;15.38;;;;;;;;;;5012959;28;20042;-69
2022/02/09 10:33:57;;;;;;;24.27;14.95;;;;;;;;;;4988275;28;20041;-64
2022/02/09 10:36:23;;;;;;;26.50;14.77;;;;;;;;;;4970001;28;20030;-64
2022/02/09 10:38:51;;;;;;;27.93;15.03;;;;;;;;;;4989295;28;20092;-64
2022/02/09 10:41:25;;;;;;;22.77;14.43;;;;;;;;;;4989677;28;20027;-64
2022/02/09 10:44:14;;;;;;;21.60;13.63;;;;;;;;;;4989529;28;20035;-64
2022/02/09 10:46:46;;;;;;;21.50;12.93;;;;;;;;;;4971368;28;20599;-65
2022/02/09 10:49:13;;;;;;;21.27;13.00;;;;;;;;;;4988293;28;20037;-66
2022/02/09 10:54:06;;;;;;;17.57;10.90;;;;;;;;;;4987808;28;20106;-65
2022/02/09 10:56:33;;;;;;;18.73;10.53;;;;;;;;;;4993902;28;20065;-66
2022/02/09 10:59:00;;;;;;;17.87;10.23;;;;;;;;;;4977675;28;20031;-65
2022/02/09 11:01:29;;;;;;;20.15;10.68;;;;;;;;;;4985875;28;20038;-63
2022/02/09 11:03:58;;;;;;;16.02;9.88;;;;;;;;;;4989489;28;20437;-61
2022/02/09 11:06:28;;;;;;;16.88;9.45;;;;;;;;;;4987302;28;20057;-62
2022/02/09 11:08:55;;;;;;;22.45;9.65;;;;;;;;;;4977145;28;20046;-66
2022/02/09 11:11:22;;;;;;;14.00;9.77;;;;;;;;;;4989296;28;20143;-66
2022/02/09 11:13:48;;;;;;;14.18;7.97;;;;;;;;;;4989170;28;20030;-66
2022/02/09 11:16:16;;;;;;;16.60;8.18;;;;;;;;;;4986612;28;20027;-67
2022/02/09 11:18:43;;;;;;;13.43;7.33;;;;;;;;;;4970753;28;20042;-66
2022/02/09 11:21:13;;;;;;;17.13;7.78;;;;;;;;;;4970513;28;20142;-66
2022/02/09 11:23:43;;;;;;;11.30;6.75;;;;;;;;;;4974588;28;20096;-67
2022/02/09 11:26:31;;;;;;;16.45;7.78;;;;;;;;;;4971610;28;20035;-66
2022/02/09 11:29:41;;;;;;;14.93;6.80;;;;;;;;;;4989126;28;20121;-66
2022/02/09 11:34:40;;;;;;;;;;;;;;;;;;4991368;28;20094;-66
2022/02/09 11:37:12;;;;;;;16.73;6.30;;;;;;;;;;4989315;28;19909;-66
2022/02/09 11:39:49;;;;;;;19.63;6.63;;;;;;;;;;4992255;28;20050;-66
2022/02/09 11:42:41;;;;;;;14.60;5.78;;;;;;;;;;4991810;28;20109;-66
2022/02/09 11:45:43;;;;;;;15.25;6.72;;;;;;;;;;4992619;28;20034;-66
2022/02/09 12:10:10;;;;;;;14.07;4.85;;;;;;;;;;4993252;28;20083;-67
2022/02/09 12:12:44;;;;;;;13.63;5.47;;;;;;;;;;4980543;28;20019;-67
2022/02/09 12:15:14;;;;;;;14.48;5.10;;;;;;;;;;4993685;28;20408;-67
2022/02/09 12:23:03;;;;;;;15.57;6.10;;;;;;;;;;4981529;28;20038;-67
2022/02/09 12:25:42;;;;;;;12.63;5.28;;;;;;;;;;4992332;28;20022;-67
2022/02/09 12:28:13;;;;;;;15.60;5.47;;;;;;;;;;4992148;28;20037;-67
2022/02/09 12:30:40;;;;;;;10.98;5.00;;;;;;;;;;4993071;28;20030;-67
2022/02/09 12:33:06;;;;;;;11.95;5.07;;;;;;;;;;4981181;28;20035;-67
2022/02/09 12:35:32;;;;;;;8.88;4.07;;;;;;;;;;4973502;28;20502;-67
2022/02/09 12:37:58;;;;;;;11.50;4.28;;;;;;;;;;4981907;28;20034;-67
2022/02/09 12:40:33;;;;;;;11.95;4.47;;;;;;;;;;4993005;28;20049;-67
2022/02/09 12:43:00;;;;;;;9.63;4.25;;;;;;;;;;4991818;28;20042;-67
2022/02/09 12:45:28;;;;;;;11.95;4.40;;;;;;;;;;4978036;28;20031;-67
2022/02/09 12:47:55;;;;;;;8.80;3.63;;;;;;;;;;4973498;28;20456;-67
2022/02/09 12:50:27;;;;;;;14.52;4.75;;;;;;;;;;4972931;28;20034;-67
2022/02/09 12:52:54;;;;;;;12.93;4.50;;;;;;;;;;4980581;28;20037;-68
2022/02/09 12:55:21;;;;;;;11.00;4.10;;;;;;;;;;4992578;28;20022;-67
2022/02/09 12:57:54;;;;;;;7.53;3.58;;;;;;;;;;4989249;28;20030;-68
2022/02/09 13:00:32;;;;;;;14.38;4.38;;;;;;;;;;4991314;28;20073;-67
2022/02/09 13:02:59;;;;;;;11.57;4.40;;;;;;;;;;4991069;28;20018;-68
2022/02/09 13:05:26;;;;;;;13.25;4.45;;;;;;;;;;4992494;28;20026;-67
2022/02/09 13:07:59;;;;;;;12.13;4.10;;;;;;;;;;4990708;28;20047;-67
2022/02/09 13:10:26;;;;;;;14.75;4.47;;;;;;;;;;4992555;28;20083;-68
2022/02/09 13:12:55;;;;;;;10.73;4.70;;;;;;;;;;4991466;28;20495;-68
2022/02/09 13:15:29;;;;;;;11.32;4.50;;;;;;;;;;4991059;28;20071;-67
2022/02/09 13:51:41;;;;;;;13.75;4.30;;;;;;;;;;4992352;28;20402;-67
2022/02/09 14:03:06;;;;;;;9.02;4.65;;;;;;;;;;4974191;28;20108;-67
2022/02/09 14:14:47;;;;;;;12.73;5.68;;;;;;;;;;4984954;28;20391;-68
2022/02/09 14:17:22;;;;;;;12.32;4.57;;;;;;;;;;5002126;28;20042;-67
2022/02/09 14:57:12;;;;;;;13.63;4.50;;;;;;;;;;4991157;28;20062;-68
2022/02/09 15:02:09;;;;;;;12.18;4.32;;;;;;;;;;4973898;28;20518;-68
2022/02/09 15:12:24;;;;;;;15.00;4.70;;;;;;;;;;4999203;28;20036;-68
2022/02/09 15:22:32;;;;;;;9.02;4.78;;;;;;;;;;4994450;28;20365;-68
2022/02/09 15:25:08;;;;;;;9.45;3.95;;;;;;;;;;4992988;28;20101;-68
2022/02/09 15:27:34;;;;;;;10.65;4.53;;;;;;;;;;4994363;28;20018;-68
2022/02/09 15:30:01;;;;;;;10.52;5.15;;;;;;;;;;4974167;28;20100;-68
2022/02/09 15:32:33;;;;;;;10.35;4.53;;;;;;;;;;4974787;28;20480;-69
2022/02/09 15:35:07;;;;;;;9.82;4.32;;;;;;;;;;4990906;28;20022;-68
2022/02/09 15:37:41;;;;;;;13.82;5.80;;;;;;;;;;4994045;28;20122;-68
2022/02/09 15:40:33;;;;;;;13.45;5.03;;;;;;;;;;4974367;28;20066;-68
2022/02/09 16:05:57;;;;;;;13.13;4.55;;;;;;;;;;4988614;28;20446;-68
2022/02/09 16:17:01;;;;;;;13.10;5.03;;;;;;;;;;4993650;28;20037;-68
2022/02/09 16:46:13;;;;;;;9.73;4.90;;;;;;;;;;4993233;28;20041;-68
2022/02/09 16:51:38;;;;;;;10.43;4.55;;;;;;;;;;4975889;28;20104;-68
2022/02/09 17:21:02;;;;;;;8.40;3.03;;;;;;;;;;4991616;28;20419;-68
2022/02/09 17:23:29;;;;;;;8.82;3.30;;;;;;;;;;4977223;28;20062;-68
2022/02/09 17:25:56;;;;;;;10.10;3.28;;;;;;;;;;4990918;28;20034;-67
2022/02/09 17:28:23;;;;;;;9.43;2.92;;;;;;;;;;4977883;28;20042;-67
2022/02/09 17:36:43;;;;;;;5.38;2.72;;;;;;;;;;4991180;28;20057;-68
2022/02/09 17:55:56;;;;;;;8.18;2.70;;;;;;;;;;4991041;28;20095;-68
2022/02/09 17:58:32;;;;;;;6.30;2.85;;;;;;;;;;4989066;28;20403;-67
2022/02/09 18:01:00;;;;;;;8.32;2.95;;;;;;;;;;4976148;28;20058;-67
2022/02/09 18:03:30;;;;;;;9.35;2.70;;;;;;;;;;4987753;28;20109;-67
2022/02/09 18:06:08;;;;;;;6.57;3.35;;;;;;;;;;4991832;28;20038;-67
2022/02/09 18:09:13;;;;;;;8.30;3.40;;;;;;;;;;4989733;28;20046;-67
2022/02/09 18:26:47;;;;;;;8.35;2.53;;;;;;;;;;4989268;28;20383;-69
2022/02/09 18:31:39;;;;;;;7.53;2.88;;;;;;;;;;4986529;28;20034;-68
2022/02/09 18:34:19;;;;;;;7.28;3.10;;;;;;;;;;4978545;28;20031;-68
2022/02/09 19:04:25;;;;;;;12.13;3.30;;;;;;;;;;4988947;28;19916;-68
2022/02/09 19:33:25;;;;;;;13.65;3.63;;;;;;;;;;4972084;28;20039;-69
2022/02/09 19:46:48;;;;;;;7.93;3.13;;;;;;;;;;4990262;28;20112;-69
2022/02/09 19:57:20;;;;;;;13.95;3.42;;;;;;;;;;4967715;28;20061;-69
2022/02/09 19:59:48;;;;;;;13.85;4.13;;;;;;;;;;4984231;28;20041;-69
2022/02/09 20:02:16;;;;;;;7.40;3.78;;;;;;;;;;4993160;28;20554;-69
2022/02/09 20:04:43;;;;;;;11.25;4.60;;;;;;;;;;4990496;28;20092;-68
2022/02/09 20:07:26;;;;;;;13.48;4.60;;;;;;;;;;4992806;28;20133;-68
2022/02/09 20:09:53;;;;;;;10.05;4.22;;;;;;;;;;4992175;28;20063;-68
2022/02/09 20:12:20;;;;;;;10.68;4.50;;;;;;;;;;4991953;28;20068;-68
2022/02/09 20:14:48;;;;;;;10.30;4.25;;;;;;;;;;4982032;28;20031;-68
2022/02/09 20:17:25;;;;;;;10.80;3.90;;;;;;;;;;4976661;28;20537;-69
2022/02/09 20:19:56;;;;;;;13.45;4.57;;;;;;;;;;4983595;28;20038;-68
2022/02/09 20:22:23;;;;;;;14.05;4.38;;;;;;;;;;4979917;28;20022;-68
2022/02/09 20:37:09;;;;;;;11.80;3.85;;;;;;;;;;4973188;28;20072;-69
2022/02/09 20:39:45;;;;;;;10.95;3.55;;;;;;;;;;4985556;28;20072;-69
2022/02/09 20:42:21;;;;;;;10.10;4.15;;;;;;;;;;4990968;28;20027;-69
2022/02/09 20:45:00;;;;;;;7.10;3.35;;;;;;;;;;4991561;28;20034;-69
2022/02/09 20:47:29;;;;;;;7.22;3.75;;;;;;;;;;4991114;28;20038;-69
2022/02/09 20:50:25;;;;;;;8.50;3.55;;;;;;;;;;4973004;28;20451;-68
2022/02/09 20:52:53;;;;;;;14.00;4.53;;;;;;;;;;4973632;28;20037;-69
2022/02/09 20:55:22;;;;;;;10.85;3.67;;;;;;;;;;4991113;28;20031;-69
2022/02/09 20:57:50;;;;;;;10.45;4.57;;;;;;;;;;4989576;28;20070;-69
2022/02/09 21:11:42;;;;;;;11.25;4.22;;;;;;;;;;4972540;28;20113;-70
2022/02/09 21:16:58;;;;;;;9.40;3.75;;;;;;;;;;4983126;28;20029;-69
2022/02/09 21:33:28;;;;;;;12.23;4.40;;;;;;;;;;4973399;28;20070;-70
2022/02/09 21:55:19;;;;;;;10.82;4.13;;;;;;;;;;4990128;28;20511;-70
2022/02/09 21:58:19;;;;;;;11.25;4.65;;;;;;;;;;4990885;28;20078;-71
2022/02/09 22:06:29;;;;;;;11.50;5.95;;;;;;;;;;4990841;28;20489;-71
2022/02/09 22:22:40;;;;;;;10.85;6.18;;;;;;;;;;4977563;28;20038;-71
2022/02/09 22:27:46;;;;;;;11.88;6.95;;;;;;;;;;4972484;28;20073;-71
2022/02/09 22:47:32;;;;;;;;;;;;;;;;;;4991860;28;20042;-71
2022/02/09 22:49:31;;;;;;;18.73;7.22;;;;;;;;;;4983654;28;19910;-71
2022/02/09 22:54:45;;;;;;;14.07;7.72;;;;;;;;;;4988612;28;20107;-71
2022/02/09 22:57:13;;;;;;;13.73;6.78;;;;;;;;;;4990950;28;20037;-71
2022/02/09 22:59:51;;;;;;;16.23;7.43;;;;;;;;;;4989823;28;20030;-71
2022/02/09 23:02:26;;;;;;;18.13;7.55;;;;;;;;;;4991305;28;20088;-71
2022/02/09 23:10:19;;;;;;;12.45;7.13;;;;;;;;;;4971807;28;20035;-71
2022/02/09 23:13:01;;;;;;;19.85;8.50;;;;;;;;;;4971735;28;20015;-71
2022/02/09 23:15:42;;;;;;;13.88;8.25;;;;;;;;;;4989323;28;20411;-71
2022/02/09 23:18:42;;;;;;;20.73;8.15;;;;;;;;;;4976257;28;20091;-71
2022/02/09 23:21:38;;;;;;;14.80;8.55;;;;;;;;;;4980368;28;20495;-71
2022/02/09 23:27:06;;;;;;;15.60;7.85;;;;;;;;;;4990691;28;20042;-71
